Time;durP1;ratioP1;P1;durP2;ratioP2;P2;SDS_P1;SDS_P2;PMS_P1;PMS_P2;Temp;Humidity;BMP_temperature;BMP_pressure;BME280_temperature;BME280_humidity;BME280_pressure;Samples;Min_cycle;Max_cycle;Signal;HPM_P1;HPM_P2
2023/07/27 00:01:43;;;;;;;2.35;0.95;;;20.10;64.90;;;;;;2527666;54;20904;-70
2023/07/27 00:04:10;;;;;;;2.25;1.00;;;20.10;64.90;;;;;;2292143;55;21318;-69
2023/07/27 00:06:36;;;;;;;2.00;0.90;;;20.10;65.00;;;;;;2527646;54;20920;-67
2023/07/27 00:09:03;;;;;;;2.72;1.00;;;20.10;65.00;;;;;;2292926;55;21029;-68
2023/07/27 00:11:29;;;;;;;1.67;0.80;;;20.00;64.80;;;;;;2292808;55;20964;-70
2023/07/27 00:13:58;;;;;;;2.28;0.82;;;20.00;64.90;;;;;;2271155;55;21430;-69
2023/07/27 00:16:25;;;;;;;2.03;0.75;;;20.00;64.80;;;;;;2291442;55;20920;-69
2023/07/27 00:18:51;;;;;;;1.83;0.85;;;20.00;64.80;;;;;;2502214;54;21049;-67
2023/07/27 00:21:18;;;;;;;1.70;0.77;;;20.00;64.80;;;;;;2524035;54;21385;-67
2023/07/27 00:23:45;;;;;;;2.60;0.80;;;20.00;64.80;;;;;;2292950;55;20979;-68
2023/07/27 00:26:12;;;;;;;2.28;0.90;;;19.90;64.70;;;;;;2271772;55;21555;-70
2023/07/27 00:28:39;;;;;;;1.62;0.75;;;19.90;65.40;;;;;;2291809;55;21755;-67
2023/07/27 00:31:05;;;;;;;1.67;0.60;;;19.90;64.70;;;;;;2292488;55;20901;-69
2023/07/27 00:33:31;;;;;;;2.50;1.10;;;19.90;64.70;;;;;;2509097;54;20958;-69
2023/07/27 00:35:58;;;;;;;2.05;0.70;;;19.90;64.70;;;;;;2285876;55;21004;-68
2023/07/27 00:38:24;;;;;;;1.98;0.75;;;19.90;64.60;;;;;;2284490;55;20934;-68
2023/07/27 00:40:53;;;;;;;2.30;0.98;;;19.90;64.60;;;;;;2511403;54;21471;-67
2023/07/27 00:43:19;;;;;;;2.28;0.88;;;19.90;64.70;;;;;;2527017;54;21385;-69
2023/07/27 00:45:49;;;;;;;3.00;0.70;;;19.80;64.60;;;;;;2527540;54;20919;-68
2023/07/27 00:48:16;;;;;;;2.17;0.88;;;19.80;64.60;;;;;;2526992;54;20952;-69
2023/07/27 00:50:43;;;;;;;2.28;0.90;;;19.80;64.70;;;;;;2292499;55;20935;-69
2023/07/27 00:53:10;;;;;;;3.35;1.00;;;19.80;64.70;;;;;;2295209;56;20908;-70
2023/07/27 00:55:37;;;;;;;1.95;0.98;;;19.80;64.80;;;;;;2270736;55;21003;-69
2023/07/27 00:58:04;;;;;;;1.87;0.90;;;19.70;64.80;;;;;;2528401;54;20893;-68
2023/07/27 01:00:31;;;;;;;2.08;0.82;;;19.70;64.80;;;;;;2528731;54;21492;-68
2023/07/27 01:02:58;;;;;;;1.80;0.73;;;19.70;64.90;;;;;;2292767;56;21844;-69
2023/07/27 01:05:24;;;;;;;1.67;0.80;;;19.70;64.90;;;;;;2510229;54;20969;-68
2023/07/27 01:07:51;;;;;;;1.98;0.80;;;19.70;64.90;;;;;;2518807;54;20905;-70
2023/07/27 01:10:17;;;;;;;2.22;0.90;;;19.70;64.90;;;;;;2292010;55;20986;-69
2023/07/27 01:12:54;;;;;;;3.60;1.00;;;19.60;64.80;;;;;;2292169;55;20917;-67
2023/07/27 01:15:26;;;;;;;1.85;0.80;;;19.70;64.60;;;;;;2527413;54;21004;-68
2023/07/27 01:18:58;;;;;;;1.98;0.90;;;19.70;65.00;;;;;;2505061;54;20989;-68
2023/07/27 01:21:34;;;;;;;2.00;0.75;;;19.70;64.00;;;;;;2292481;55;20968;-66
2023/07/27 01:24:33;;;;;;;1.85;0.80;;;19.70;64.70;;;;;;2508928;54;20933;-68
2023/07/27 01:27:15;;;;;;;1.73;0.70;;;19.70;64.30;;;;;;2291212;55;20929;-66
2023/07/27 01:30:00;;;;;;;2.28;1.10;;;19.70;64.80;;;;;;2508425;54;20989;-67
2023/07/27 01:32:29;;;;;;;2.05;0.90;;;19.70;64.30;;;;;;2274539;55;20976;-68
2023/07/27 01:34:57;;;;;;;2.50;1.02;;;19.70;65.00;;;;;;2276699;55;20973;-69
2023/07/27 01:37:23;;;;;;;1.92;0.90;;;19.60;64.90;;;;;;2289934;55;21024;-68
2023/07/27 01:39:50;;;;;;;2.10;1.00;;;19.70;64.90;;;;;;2527190;54;21382;-69
2023/07/27 01:42:17;;;;;;;2.15;0.85;;;19.70;64.90;;;;;;2527352;54;21511;-68
2023/07/27 01:44:43;;;;;;;2.20;0.90;;;19.70;64.90;;;;;;2527249;54;20932;-68
2023/07/27 01:47:10;;;;;;;2.72;1.20;;;19.70;65.00;;;;;;2527557;54;20991;-68
2023/07/27 01:49:41;;;;;;;2.10;1.00;;;19.70;64.90;;;;;;2285188;55;20957;-69
2023/07/27 01:52:07;;;;;;;2.45;1.35;;;19.70;64.80;;;;;;2282458;55;21012;-68
2023/07/27 01:54:34;;;;;;;2.50;1.20;;;19.70;64.90;;;;;;2503028;54;20948;-67
2023/07/27 01:57:00;;;;;;;2.72;1.45;;;19.70;64.80;;;;;;2526137;54;21440;-68
2023/07/27 01:59:26;;;;;;;3.10;1.50;;;19.70;64.90;;;;;;2527693;54;20920;-68
2023/07/27 02:01:53;;;;;;;3.12;1.48;;;19.70;64.90;;;;;;2273323;55;20961;-70
2023/07/27 02:04:19;;;;;;;2.70;1.50;;;19.70;65.00;;;;;;2528258;54;20928;-69
2023/07/27 02:06:49;;;;;;;2.30;1.17;;;19.70;65.00;;;;;;2292711;55;20984;-68
2023/07/27 02:09:16;;;;;;;2.37;1.25;;;19.80;64.90;;;;;;2292152;55;20943;-67
2023/07/27 02:11:43;;;;;;;4.32;1.55;;;19.70;64.90;;;;;;2292458;55;21429;-70
2023/07/27 02:15:02;;;;;;;2.62;1.17;;;19.70;64.90;;;;;;2527333;54;20944;-67
2023/07/27 02:17:45;;;;;;;2.20;1.00;;;19.80;64.00;;;;;;2527197;54;20920;-69
2023/07/27 02:20:17;;;;;;;2.05;0.90;;;19.80;64.80;;;;;;2292087;55;20920;-67
2023/07/27 02:22:43;;;;;;;1.87;0.90;;;19.80;65.00;;;;;;2523044;54;20956;-68
2023/07/27 02:25:10;;;;;;;2.08;1.00;;;19.80;65.00;;;;;;2525577;54;20935;-69
2023/07/27 02:27:38;;;;;;;2.05;0.90;;;19.80;65.20;;;;;;2521660;54;20944;-67
2023/07/27 02:30:05;;;;;;;3.87;0.98;;;19.70;65.20;;;;;;2291373;55;21127;-68
2023/07/27 02:32:32;;;;;;;3.30;1.00;;;19.70;65.20;;;;;;2287819;55;20966;-69
2023/07/27 02:34:58;;;;;;;1.85;0.82;;;19.60;65.10;;;;;;2278812;55;20919;-68
2023/07/27 02:37:25;;;;;;;1.65;0.70;;;19.70;65.20;;;;;;2528091;54;20904;-69
2023/07/27 02:39:51;;;;;;;1.90;0.90;;;19.70;65.20;;;;;;2527435;54;20960;-69
2023/07/27 02:42:18;;;;;;;2.37;1.00;;;19.80;65.40;;;;;;2292768;56;21988;-69
2023/07/27 02:44:44;;;;;;;4.28;1.23;;;19.70;65.20;;;;;;2528056;54;20908;-66
2023/07/27 02:47:11;;;;;;;2.30;1.00;;;19.70;65.20;;;;;;2293169;56;20888;-68
2023/07/27 02:49:37;;;;;;;2.83;1.00;;;19.70;65.20;;;;;;2293191;56;20932;-68
2023/07/27 02:52:05;;;;;;;2.40;1.00;;;19.70;65.30;;;;;;2292014;55;20952;-69
2023/07/27 02:54:31;;;;;;;1.65;0.73;;;19.70;65.30;;;;;;2528501;54;20901;-70
2023/07/27 02:57:01;;;;;;;1.58;0.77;;;19.70;65.30;;;;;;2527755;54;20920;-69
2023/07/27 02:59:27;;;;;;;3.60;1.05;;;19.70;65.30;;;;;;2293833;55;20972;-68
2023/07/27 03:01:54;;;;;;;2.12;0.93;;;19.70;65.50;;;;;;2505167;54;20990;-69
2023/07/27 03:04:21;;;;;;;2.45;0.98;;;19.70;65.50;;;;;;2522957;54;20995;-68
2023/07/27 03:06:49;;;;;;;1.90;1.00;;;19.70;65.60;;;;;;2292559;55;20924;-68
2023/07/27 03:09:15;;;;;;;1.75;0.80;;;19.70;65.50;;;;;;2273412;55;21429;-68
2023/07/27 03:11:42;;;;;;;2.22;1.10;;;19.70;65.60;;;;;;2500921;54;20984;-68
2023/07/27 03:14:10;;;;;;;2.20;0.95;;;19.70;65.60;;;;;;2292213;55;20892;-68
2023/07/27 03:16:37;;;;;;;2.00;1.00;;;19.60;65.40;;;;;;2292556;55;21011;-67
2023/07/27 03:19:05;;;;;;;2.10;1.02;;;19.60;65.40;;;;;;2273894;55;21398;-70
2023/07/27 03:21:32;;;;;;;2.00;0.90;;;19.60;65.50;;;;;;2527368;54;20969;-69
2023/07/27 03:23:58;;;;;;;3.12;1.10;;;19.60;65.50;;;;;;2525569;54;20900;-69
2023/07/27 03:26:25;;;;;;;2.20;1.20;;;19.60;65.40;;;;;;2271275;55;20976;-67
2023/07/27 03:28:51;;;;;;;1.95;0.90;;;19.60;65.40;;;;;;2527207;54;21000;-68
2023/07/27 03:31:23;;;;;;;2.65;0.90;;;19.60;65.50;;;;;;2290540;55;20972;-70
2023/07/27 03:33:49;;;;;;;1.90;0.80;;;19.40;65.20;;;;;;2527271;54;20919;-68
2023/07/27 03:36:16;;;;;;;2.17;1.17;;;19.60;65.50;;;;;;2526982;54;20904;-68
2023/07/27 03:38:43;;;;;;;1.92;0.80;;;19.60;65.50;;;;;;2527089;54;20900;-67
2023/07/27 03:41:11;;;;;;;2.00;0.90;;;19.60;65.50;;;;;;2291492;55;20991;-69
2023/07/27 03:43:37;;;;;;;2.17;1.00;;;19.50;65.40;;;;;;2526109;54;21441;-67
2023/07/27 03:46:04;;;;;;;2.22;1.00;;;19.50;65.50;;;;;;2291470;55;20908;-68
2023/07/27 03:48:31;;;;;;;1.85;1.05;;;19.50;65.60;;;;;;2527019;54;20964;-68
2023/07/27 03:51:00;;;;;;;2.53;1.20;;;19.50;65.70;;;;;;2526743;54;20983;-69
2023/07/27 03:53:27;;;;;;;2.33;1.00;;;19.50;65.60;;;;;;2294626;55;20989;-68
2023/07/27 03:55:54;;;;;;;4.53;1.40;;;19.50;65.70;;;;;;2267971;55;21573;-70
2023/07/27 03:58:20;;;;;;;2.55;1.30;;;19.50;65.80;;;;;;2279281;55;20951;-69
2023/07/27 04:00:46;;;;;;;2.40;1.20;;;19.50;65.90;;;;;;2526487;54;20984;-69
2023/07/27 04:03:13;;;;;;;2.70;1.10;;;19.50;66.00;;;;;;2255171;55;2232562;-67
2023/07/27 04:05:39;;;;;;;3.25;1.17;;;19.50;66.00;;;;;;2525813;54;20992;-67
2023/07/27 04:08:05;;;;;;;2.60;1.10;;;19.50;66.10;;;;;;2526874;54;20912;-70
2023/07/27 04:10:32;;;;;;;2.40;1.08;;;19.50;66.10;;;;;;2291718;55;21012;-70
2023/07/27 04:13:05;;;;;;;2.60;1.08;;;19.50;66.10;;;;;;2291809;55;20956;-67
2023/07/27 04:15:32;;;;;;;2.17;1.05;;;19.50;66.10;;;;;;2525733;54;20980;-69
2023/07/27 04:17:59;;;;;;;2.33;1.05;;;19.50;66.10;;;;;;2291681;55;21514;-68
2023/07/27 04:20:25;;;;;;;2.92;1.27;;;19.50;66.10;;;;;;2525435;54;21745;-68
2023/07/27 04:22:52;;;;;;;3.87;1.40;;;19.50;66.20;;;;;;2526792;54;21485;-67
2023/07/27 04:25:18;;;;;;;3.40;1.25;;;19.50;66.20;;;;;;2527063;54;21020;-69
2023/07/27 04:27:45;;;;;;;2.45;1.12;;;19.50;66.30;;;;;;2292298;56;21312;-67
2023/07/27 04:30:12;;;;;;;3.40;1.27;;;19.60;66.40;;;;;;2527495;54;22036;-68
2023/07/27 04:32:38;;;;;;;2.65;1.23;;;19.60;66.40;;;;;;2527519;54;20944;-67
2023/07/27 04:35:06;;;;;;;4.25;1.10;;;19.60;66.40;;;;;;2527098;54;20968;-67
2023/07/27 04:37:32;;;;;;;2.25;1.10;;;19.60;67.10;;;;;;2527447;54;20936;-68
2023/07/27 04:39:58;;;;;;;2.17;1.10;;;19.60;66.40;;;;;;2520276;54;21119;-69
2023/07/27 04:42:24;;;;;;;2.40;1.00;;;19.60;66.40;;;;;;2276010;55;20932;-68
2023/07/27 04:44:51;;;;;;;2.85;1.08;;;19.60;66.50;;;;;;2527672;54;21076;-68
2023/07/27 04:47:18;;;;;;;2.65;1.20;;;19.60;66.40;;;;;;2527567;54;20969;-69
2023/07/27 04:49:45;;;;;;;2.60;1.30;;;19.60;66.50;;;;;;2527804;54;20980;-67
2023/07/27 04:52:12;;;;;;;2.33;1.05;;;19.60;66.50;;;;;;2527860;54;20956;-68
2023/07/27 04:54:42;;;;;;;2.30;1.23;;;19.60;66.60;;;;;;2527753;54;20952;-68
2023/07/27 04:57:08;;;;;;;2.55;1.25;;;19.60;66.60;;;;;;2527511;54;21033;-70
2023/07/27 04:59:34;;;;;;;3.10;1.17;;;19.60;66.50;;;;;;2292915;55;20940;-69
2023/07/27 05:02:02;;;;;;;2.40;1.15;;;19.60;66.60;;;;;;2292402;55;20917;-70
2023/07/27 05:04:28;;;;;;;2.53;1.08;;;19.60;66.60;;;;;;2527934;54;21434;-68
2023/07/27 05:06:54;;;;;;;2.55;0.90;;;19.60;66.50;;;;;;2528197;54;21019;-69
2023/07/27 05:09:20;;;;;;;2.30;1.00;;;19.60;66.50;;;;;;2527639;54;21294;-69
2023/07/27 05:11:47;;;;;;;2.35;0.95;;;19.60;66.40;;;;;;2292084;55;20924;-67
2023/07/27 05:14:14;;;;;;;2.60;1.02;;;19.60;66.40;;;;;;2518827;54;21042;-67
2023/07/27 05:16:40;;;;;;;2.70;1.12;;;19.70;66.50;;;;;;2273023;55;20953;-69
2023/07/27 05:19:07;;;;;;;2.03;1.00;;;19.70;66.40;;;;;;2292267;55;21418;-69
2023/07/27 05:21:37;;;;;;;2.50;1.10;;;19.70;66.40;;;;;;2291339;55;20968;-70
2023/07/27 05:24:04;;;;;;;2.70;1.02;;;19.70;66.30;;;;;;2527542;54;20893;-69
2023/07/27 05:26:30;;;;;;;3.00;1.20;;;19.80;66.50;;;;;;2291815;55;20920;-68
2023/07/27 05:29:00;;;;;;;3.35;1.20;;;19.80;66.50;;;;;;2527100;54;20937;-67
2023/07/27 05:31:26;;;;;;;2.45;1.20;;;19.80;66.50;;;;;;2527272;54;20900;-68
2023/07/27 05:33:52;;;;;;;2.50;1.15;;;19.80;66.50;;;;;;2527214;54;21592;-70
2023/07/27 05:36:19;;;;;;;2.40;1.00;;;19.80;66.40;;;;;;2526664;54;20947;-70
2023/07/27 05:38:45;;;;;;;3.17;1.37;;;19.90;66.50;;;;;;2527214;54;20924;-68
2023/07/27 05:41:14;;;;;;;2.47;1.20;;;19.70;66.30;;;;;;2525147;54;20972;-68
2023/07/27 05:43:41;;;;;;;3.17;1.30;;;19.90;66.40;;;;;;2526720;54;21012;-69
2023/07/27 05:46:07;;;;;;;3.30;1.00;;;19.90;66.50;;;;;;2526792;54;21397;-68
2023/07/27 05:48:34;;;;;;;1.58;0.85;;;20.00;66.60;;;;;;2527514;54;21405;-69
2023/07/27 05:51:00;;;;;;;2.20;1.00;;;20.00;66.60;;;;;;2291440;55;20920;-70
2023/07/27 05:53:26;;;;;;;2.87;1.20;;;20.00;66.70;;;;;;2292261;55;21039;-70
2023/07/27 05:55:53;;;;;;;2.80;1.25;;;20.00;66.60;;;;;;2274158;55;21723;-68
2023/07/27 05:58:20;;;;;;;2.95;1.33;;;20.10;66.70;;;;;;2291773;55;20916;-68
2023/07/27 06:00:50;;;;;;;3.60;1.48;;;20.10;66.70;;;;;;2292057;55;20924;-69
2023/07/27 06:03:18;;;;;;;2.12;1.08;;;20.10;66.70;;;;;;2527230;54;21690;-69
2023/07/27 06:05:45;;;;;;;3.15;1.20;;;20.20;66.80;;;;;;2291855;55;20928;-69
2023/07/27 06:08:11;;;;;;;2.72;1.42;;;20.20;66.60;;;;;;2527478;54;20904;-68
2023/07/27 06:10:38;;;;;;;2.70;1.10;;;20.20;66.60;;;;;;2292205;55;21515;-69
2023/07/27 06:13:04;;;;;;;2.85;1.35;;;20.20;66.50;;;;;;2527469;54;20980;-68
2023/07/27 06:15:34;;;;;;;3.05;1.12;;;20.20;66.40;;;;;;2527844;54;20917;-69
2023/07/27 06:18:00;;;;;;;2.75;1.20;;;20.20;66.40;;;;;;2526997;54;21520;-67
2023/07/27 06:20:28;;;;;;;3.15;1.40;;;20.30;66.50;;;;;;2289207;55;21058;-67
2023/07/27 06:22:55;;;;;;;2.40;1.25;;;20.30;66.40;;;;;;2275489;55;20901;-68
2023/07/27 06:25:24;;;;;;;2.87;1.00;;;20.30;66.40;;;;;;2286398;55;20949;-70
2023/07/27 06:27:50;;;;;;;2.65;1.30;;;20.30;66.30;;;;;;2512554;54;20964;-70
2023/07/27 06:30:18;;;;;;;2.83;1.20;;;20.30;66.30;;;;;;2503091;54;21021;-68
2023/07/27 06:32:44;;;;;;;2.90;1.40;;;20.40;66.40;;;;;;2275627;55;20982;-67
2023/07/27 06:35:13;;;;;;;2.22;1.20;;;20.30;66.30;;;;;;2524424;54;21059;-68
2023/07/27 06:37:39;;;;;;;3.12;1.45;;;20.40;66.40;;;;;;2292184;55;20912;-70
2023/07/27 06:40:07;;;;;;;2.72;1.00;;;20.40;66.50;;;;;;2527609;54;20936;-69
2023/07/27 06:42:33;;;;;;;3.37;1.02;;;20.40;66.60;;;;;;2291703;55;20960;-69
2023/07/27 06:45:01;;;;;;;2.85;1.25;;;20.40;66.50;;;;;;2291588;55;20917;-68
2023/07/27 06:47:30;;;;;;;2.75;1.35;;;20.40;66.50;;;;;;2527379;54;20976;-71
2023/07/27 06:49:57;;;;;;;3.10;1.60;;;20.50;66.50;;;;;;2291609;55;21024;-70
2023/07/27 06:52:25;;;;;;;2.05;0.95;;;20.50;66.50;;;;;;2292764;55;21008;-70
2023/07/27 06:54:51;;;;;;;2.60;1.12;;;20.50;66.40;;;;;;2516627;54;20958;-69
2023/07/27 06:57:19;;;;;;;4.25;1.30;;;20.50;66.40;;;;;;2274072;55;21320;-69
2023/07/27 06:59:46;;;;;;;2.37;1.20;;;20.50;66.50;;;;;;2270049;55;20938;-69
2023/07/27 07:02:13;;;;;;;2.62;1.15;;;20.50;66.50;;;;;;2518131;54;20948;-69
2023/07/27 07:04:39;;;;;;;2.42;1.02;;;20.60;66.50;;;;;;2526734;54;20988;-68
2023/07/27 07:07:07;;;;;;;3.53;1.40;;;20.60;66.50;;;;;;2498341;54;21021;-68
2023/07/27 07:09:35;;;;;;;2.70;1.27;;;20.60;66.40;;;;;;2285072;55;20985;-70
2023/07/27 07:12:07;;;;;;;2.90;1.23;;;20.60;66.40;;;;;;2281980;55;20908;-70
2023/07/27 07:14:33;;;;;;;2.78;1.40;;;20.60;66.30;;;;;;2526717;54;20912;-68
2023/07/27 07:17:01;;;;;;;2.10;0.90;;;20.60;66.40;;;;;;2291700;55;20952;-68
2023/07/27 07:19:27;;;;;;;2.67;0.93;;;20.70;66.40;;;;;;2291887;55;20955;-68
2023/07/27 07:21:54;;;;;;;2.60;1.10;;;20.70;66.50;;;;;;2275455;55;20942;-66
2023/07/27 07:24:21;;;;;;;2.67;1.10;;;20.70;66.50;;;;;;2526210;54;21031;-68
2023/07/27 07:26:48;;;;;;;2.62;1.20;;;20.70;66.50;;;;;;2292267;55;21048;-69
2023/07/27 07:29:16;;;;;;;3.45;1.08;;;20.70;66.50;;;;;;2292168;55;20988;-68
2023/07/27 07:31:42;;;;;;;2.22;1.05;;;20.80;66.60;;;;;;2292550;55;21469;-69
2023/07/27 07:34:09;;;;;;;2.40;1.10;;;20.80;66.50;;;;;;2291959;55;20924;-69
2023/07/27 07:36:35;;;;;;;2.65;1.10;;;20.80;66.40;;;;;;2291898;55;21012;-69
2023/07/27 07:39:04;;;;;;;2.62;1.17;;;20.80;66.30;;;;;;2292645;55;21064;-68
2023/07/27 07:41:31;;;;;;;3.35;1.12;;;20.90;66.40;;;;;;2527211;54;20909;-68
2023/07/27 07:44:00;;;;;;;3.30;1.80;;;20.90;66.30;;;;;;2291662;55;20896;-69
2023/07/27 07:46:28;;;;;;;2.22;1.05;;;20.90;66.30;;;;;;2527508;54;20985;-69
2023/07/27 07:48:55;;;;;;;2.75;1.30;;;20.80;66.20;;;;;;2291794;55;20920;-67
2023/07/27 07:51:21;;;;;;;2.25;1.20;;;21.00;66.40;;;;;;2272332;55;21012;-70
2023/07/27 07:53:48;;;;;;;3.50;1.20;;;21.00;66.40;;;;;;2526915;54;20925;-70
2023/07/27 07:56:19;;;;;;;2.72;1.08;;;21.00;66.40;;;;;;2526789;54;20941;-69
2023/07/27 07:58:46;;;;;;;3.95;1.30;;;21.10;66.30;;;;;;2527776;54;20988;-70
2023/07/27 08:01:15;;;;;;;2.90;1.15;;;21.10;66.30;;;;;;2292212;55;20973;-69
2023/07/27 08:03:41;;;;;;;3.05;1.10;;;21.20;66.40;;;;;;2291502;55;20937;-69
2023/07/27 08:06:11;;;;;;;4.05;1.23;;;21.20;66.30;;;;;;2273652;55;20969;-69
2023/07/27 08:08:37;;;;;;;2.83;1.15;;;21.20;66.00;;;;;;2525976;54;20920;-71
2023/07/27 08:11:04;;;;;;;2.97;1.20;;;21.20;66.20;;;;;;2527851;54;20916;-68
2023/07/27 08:13:31;;;;;;;2.58;1.08;;;21.30;66.20;;;;;;2527461;54;20940;-70
2023/07/27 08:15:57;;;;;;;1.90;0.90;;;21.30;66.20;;;;;;2526358;54;20901;-69
2023/07/27 08:18:23;;;;;;;1.70;0.88;;;21.30;66.10;;;;;;2527243;54;21028;-69
2023/07/27 08:21:08;;;;;;;2.35;1.02;;;21.40;66.20;;;;;;2527991;54;20932;-68
2023/07/27 08:23:36;;;;;;;3.95;1.10;;;21.40;65.20;;;;;;2527275;54;20927;-68
2023/07/27 08:26:05;;;;;;;2.42;1.12;;;21.50;66.00;;;;;;2292337;55;21021;-68
2023/07/27 08:28:34;;;;;;;2.28;1.10;;;21.50;65.80;;;;;;2292170;55;21506;-71
2023/07/27 08:31:03;;;;;;;2.35;1.05;;;21.50;65.70;;;;;;2292470;55;20972;-69
2023/07/27 08:33:30;;;;;;;2.42;1.02;;;21.50;65.30;;;;;;2291825;55;20928;-70
2023/07/27 08:35:57;;;;;;;2.97;1.20;;;21.50;66.10;;;;;;2527890;54;22381;-69
2023/07/27 08:38:25;;;;;;;2.60;1.12;;;21.60;65.40;;;;;;2526852;54;21036;-68
2023/07/27 08:40:58;;;;;;;3.15;1.12;;;21.60;65.20;;;;;;2292122;55;22168;-70
2023/07/27 08:43:25;;;;;;;3.75;1.10;;;21.60;64.80;;;;;;2291466;55;20904;-68
2023/07/27 08:45:52;;;;;;;2.70;1.17;;;21.60;65.20;;;;;;2292081;55;21072;-68
2023/07/27 08:48:18;;;;;;;3.47;0.93;;;21.70;65.20;;;;;;2501066;54;21006;-69
2023/07/27 08:50:47;;;;;;;2.60;1.05;;;21.70;65.20;;;;;;2527614;54;21024;-68
2023/07/27 08:53:18;;;;;;;2.80;1.20;;;21.70;64.90;;;;;;2527116;54;20932;-70
2023/07/27 08:55:44;;;;;;;3.45;1.12;;;21.80;64.90;;;;;;2527093;54;20940;-68
2023/07/27 08:58:13;;;;;;;2.58;1.30;;;21.70;64.70;;;;;;2291407;55;21004;-69
2023/07/27 09:00:40;;;;;;;2.75;1.42;;;21.80;64.80;;;;;;2290434;55;20972;-69
2023/07/27 09:03:07;;;;;;;4.47;1.15;;;21.80;64.70;;;;;;2285492;55;21065;-69
2023/07/27 09:06:16;;;;;;;2.78;1.20;;;21.80;64.80;;;;;;2512918;54;20980;-68
2023/07/27 09:08:44;;;;;;;2.33;1.00;;;21.80;63.50;;;;;;2288701;55;21130;-71
2023/07/27 09:11:12;;;;;;;2.60;1.10;;;21.80;64.70;;;;;;2506771;54;20936;-66
2023/07/27 09:13:38;;;;;;;2.92;0.90;;;21.80;64.60;;;;;;2291784;55;21772;-67
2023/07/27 09:16:09;;;;;;;2.75;0.93;;;21.90;64.70;;;;;;2527148;54;20995;-72
2023/07/27 09:18:36;;;;;;;3.10;1.25;;;21.90;64.40;;;;;;2272291;55;21026;-70
2023/07/27 09:21:08;;;;;;;4.47;1.60;;;21.90;64.60;;;;;;2511790;54;21013;-69
2023/07/27 09:23:36;;;;;;;2.53;1.17;;;21.90;64.20;;;;;;2526851;54;21341;-69
2023/07/27 09:26:05;;;;;;;2.15;1.02;;;21.90;64.50;;;;;;2291981;55;20944;-70
2023/07/27 09:28:32;;;;;;;3.10;1.15;;;21.90;64.50;;;;;;2523376;54;21016;-68
2023/07/27 09:30:59;;;;;;;2.37;1.12;;;22.00;64.50;;;;;;2270846;55;20953;-67
2023/07/27 09:33:31;;;;;;;1.92;0.88;;;22.00;64.40;;;;;;2291765;55;21006;-67
2023/07/27 09:35:57;;;;;;;3.03;1.00;;;22.00;64.30;;;;;;2292241;55;20924;-69
2023/07/27 09:38:27;;;;;;;3.83;0.90;;;22.00;64.40;;;;;;2527562;54;20961;-66
2023/07/27 09:40:53;;;;;;;2.25;1.00;;;22.10;64.50;;;;;;2272632;55;20973;-68
2023/07/27 09:43:29;;;;;;;3.03;1.12;;;22.10;64.60;;;;;;2526857;54;20964;-67
2023/07/27 09:45:58;;;;;;;2.58;0.93;;;22.10;64.10;;;;;;2291617;55;20943;-70
2023/07/27 09:48:25;;;;;;;1.87;0.95;;;22.20;64.50;;;;;;2527358;54;21468;-69
2023/07/27 09:50:56;;;;;;;2.28;1.00;;;22.20;64.80;;;;;;2292249;56;20960;-69
2023/07/27 09:53:23;;;;;;;2.25;1.10;;;22.30;65.00;;;;;;2527275;54;20904;-67
2023/07/27 09:55:50;;;;;;;2.53;0.98;;;22.30;65.10;;;;;;2526783;54;20940;-66
2023/07/27 09:58:16;;;;;;;2.92;1.00;;;22.40;65.10;;;;;;2526521;54;20964;-67
2023/07/27 10:00:43;;;;;;;2.45;1.00;;;22.40;65.20;;;;;;2515796;54;20997;-69
2023/07/27 10:03:09;;;;;;;1.98;0.80;;;22.50;65.30;;;;;;2280982;55;20913;-68
2023/07/27 10:05:38;;;;;;;2.55;1.00;;;22.60;65.40;;;;;;2527621;54;20940;-66
2023/07/27 10:08:04;;;;;;;2.05;0.80;;;22.60;65.40;;;;;;2518344;54;21919;-70
2023/07/27 10:10:42;;;;;;;2.20;1.02;;;22.70;65.40;;;;;;2278455;55;21568;-67
2023/07/27 10:15:03;;;;;;;3.83;1.12;;;22.80;65.00;;;;;;2527263;54;21827;-67
2023/07/27 10:17:45;;;;;;;2.70;1.05;;;22.90;65.20;;;;;;2526839;54;21346;-68
2023/07/27 10:22:52;;;;;;;2.70;1.15;;;23.00;64.60;;;;;;2526360;54;20904;-67
2023/07/27 10:25:20;;;;;;;2.65;1.23;;;23.20;64.20;;;;;;2527250;54;20984;-69
2023/07/27 10:27:55;;;;;;;2.50;1.10;;;23.20;65.40;;;;;;2527591;54;20900;-67
2023/07/27 10:30:23;;;;;;;2.17;0.93;;;23.30;65.00;;;;;;2526987;54;20936;-68
2023/07/27 10:33:09;;;;;;;2.28;1.00;;;23.40;65.50;;;;;;2526609;54;20912;-68
2023/07/27 10:36:00;;;;;;;3.08;1.10;;;23.40;64.30;;;;;;2526554;54;20889;-68
2023/07/27 10:38:26;;;;;;;4.25;1.37;;;23.50;64.30;;;;;;2526562;54;21719;-68
2023/07/27 10:40:53;;;;;;;2.67;1.15;;;23.50;65.30;;;;;;2291871;55;20940;-70
2023/07/27 10:43:23;;;;;;;2.83;1.20;;;23.60;65.30;;;;;;2526940;54;21001;-68
2023/07/27 10:45:54;;;;;;;2.70;1.20;;;23.60;65.20;;;;;;2527145;54;20962;-70
2023/07/27 10:48:20;;;;;;;2.37;1.02;;;23.70;64.90;;;;;;2292026;55;21770;-68
2023/07/27 10:50:47;;;;;;;2.10;0.93;;;23.80;65.30;;;;;;2527410;54;20972;-69
2023/07/27 10:53:13;;;;;;;2.40;1.20;;;23.80;65.30;;;;;;2526750;54;20923;-67
2023/07/27 10:55:42;;;;;;;4.05;1.50;;;23.90;65.30;;;;;;2291347;55;20996;-69
2023/07/27 10:58:09;;;;;;;3.47;1.10;;;23.90;65.00;;;;;;2292160;55;21399;-70
2023/07/27 11:00:36;;;;;;;2.45;1.20;;;23.90;65.10;;;;;;2292621;55;20976;-68
2023/07/27 11:03:03;;;;;;;2.62;1.17;;;24.00;65.10;;;;;;2292410;55;21856;-67
2023/07/27 11:05:32;;;;;;;3.20;0.90;;;24.00;65.00;;;;;;2524966;54;21394;-68
2023/07/27 11:08:02;;;;;;;2.90;1.20;;;24.10;65.20;;;;;;2511256;54;20974;-70
2023/07/27 11:10:32;;;;;;;2.00;1.08;;;24.10;64.80;;;;;;2517323;54;20984;-69
2023/07/27 11:12:59;;;;;;;2.80;1.10;;;24.10;64.90;;;;;;2528178;54;20996;-71
2023/07/27 11:15:27;;;;;;;2.00;1.00;;;24.10;64.90;;;;;;2527259;54;20925;-69
2023/07/27 11:17:54;;;;;;;2.33;1.02;;;24.10;64.90;;;;;;2292015;56;21440;-69
2023/07/27 11:20:25;;;;;;;2.50;1.20;;;24.10;64.80;;;;;;2292255;56;20909;-70
2023/07/27 11:22:52;;;;;;;2.97;0.90;;;24.20;64.90;;;;;;2527808;54;21013;-67
2023/07/27 11:25:20;;;;;;;3.10;1.20;;;24.20;65.10;;;;;;2508393;54;21041;-69
2023/07/27 11:27:49;;;;;;;2.92;1.10;;;24.20;65.10;;;;;;2482190;55;20969;-69
2023/07/27 11:30:17;;;;;;;2.95;1.00;;;24.20;65.00;;;;;;2487838;54;20940;-69
2023/07/27 11:32:56;;;;;;;2.47;0.80;;;24.20;65.20;;;;;;2285588;55;20981;-69
2023/07/27 11:35:22;;;;;;;2.33;1.08;;;24.20;64.70;;;;;;2514533;54;20913;-68
2023/07/27 11:37:49;;;;;;;2.28;1.00;;;24.20;65.30;;;;;;2527783;54;21757;-69
2023/07/27 11:40:19;;;;;;;1.73;0.80;;;24.20;65.30;;;;;;2527087;54;20920;-67
2023/07/27 11:42:45;;;;;;;2.10;1.05;;;24.20;65.10;;;;;;2527692;54;21049;-69
2023/07/27 11:45:11;;;;;;;2.28;0.98;;;24.20;65.30;;;;;;2527120;54;20928;-68
2023/07/27 11:47:38;;;;;;;2.20;1.00;;;24.20;65.40;;;;;;2291798;55;20913;-69
2023/07/27 11:50:06;;;;;;;2.62;1.05;;;24.20;65.50;;;;;;2527788;54;20996;-68
2023/07/27 11:52:35;;;;;;;2.95;1.08;;;24.20;65.50;;;;;;2292005;55;20980;-68
2023/07/27 11:55:02;;;;;;;2.35;0.90;;;24.20;65.40;;;;;;2291681;56;20920;-67
2023/07/27 11:57:30;;;;;;;3.30;0.90;;;24.20;65.40;;;;;;2501188;54;20987;-68
2023/07/27 12:00:13;;;;;;;2.28;0.95;;;24.20;65.40;;;;;;2292262;55;20984;-70
2023/07/27 12:02:40;;;;;;;1.90;0.77;;;24.20;65.30;;;;;;2292211;56;20936;-68
2023/07/27 12:05:12;;;;;;;2.40;1.00;;;24.20;65.60;;;;;;2292005;56;20936;-68
2023/07/27 12:07:39;;;;;;;2.20;1.10;;;24.30;65.40;;;;;;2291935;55;20988;-67
2023/07/27 12:10:16;;;;;;;2.55;0.77;;;24.30;65.70;;;;;;2527746;54;20940;-70
2023/07/27 12:12:59;;;;;;;2.78;1.25;;;24.30;65.30;;;;;;2291394;55;20928;-68
2023/07/27 12:15:35;;;;;;;2.10;1.02;;;24.30;64.80;;;;;;2294086;55;20967;-68
2023/07/27 12:18:03;;;;;;;2.10;0.90;;;24.40;65.50;;;;;;2503413;54;20932;-67
2023/07/27 12:20:32;;;;;;;3.22;1.10;;;24.40;65.70;;;;;;2526396;54;20988;-68
2023/07/27 12:23:03;;;;;;;2.12;0.93;;;24.40;65.80;;;;;;2518376;54;20985;-69
2023/07/27 12:25:33;;;;;;;1.95;0.95;;;24.40;65.90;;;;;;2510871;54;21358;-69
2023/07/27 12:28:02;;;;;;;1.87;0.90;;;24.50;65.80;;;;;;2526947;54;21004;-70
2023/07/27 12:30:32;;;;;;;2.97;1.30;;;24.50;65.80;;;;;;2527035;54;20920;-69
2023/07/27 12:32:58;;;;;;;2.53;1.10;;;24.60;65.90;;;;;;2291552;56;20928;-68
2023/07/27 12:35:28;;;;;;;2.10;0.93;;;24.60;65.70;;;;;;2527154;54;20969;-69
2023/07/27 12:37:55;;;;;;;1.95;0.90;;;24.60;65.50;;;;;;2291498;55;20912;-69
2023/07/27 12:40:21;;;;;;;1.58;0.75;;;24.70;65.70;;;;;;2291498;56;20920;-69
2023/07/27 12:43:22;;;;;;;2.83;1.05;;;24.70;65.70;;;;;;2526838;54;20912;-68
2023/07/27 12:45:50;;;;;;;2.12;0.90;;;24.80;65.70;;;;;;2291675;55;21003;-68
2023/07/27 12:48:16;;;;;;;2.17;1.00;;;24.80;65.50;;;;;;2527375;54;21489;-66
2023/07/27 12:50:42;;;;;;;2.60;1.20;;;24.90;65.50;;;;;;2291761;56;21640;-67
2023/07/27 12:53:09;;;;;;;2.05;1.05;;;24.90;65.20;;;;;;2291632;55;20974;-69
2023/07/27 12:55:35;;;;;;;2.65;1.17;;;24.90;65.20;;;;;;2503763;54;21025;-68
2023/07/27 12:58:02;;;;;;;2.70;1.20;;;25.00;65.00;;;;;;2523533;54;20956;-67
2023/07/27 13:00:28;;;;;;;2.70;1.40;;;25.00;65.10;;;;;;2526775;54;21732;-67